Time;durP1;ratioP1;P1;durP2;ratioP2;P2;SDS_P1;SDS_P2;PMS_P1;PMS_P2;Temp;Humidity;BMP_temperature;BMP_pressure;BME280_temperature;BME280_humidity;BME280_pressure;Samples;Min_cycle;Max_cycle;Signal;HPM_P1;HPM_P2
2022/02/19 00:00:24;;;;;;;;;;;;;;;3.48;100.00;97776.84;5095484;28;20406;-76
2022/02/19 00:02:51;;;;;;;;;;;;;;;3.21;100.00;97789.69;5095214;28;19924;-75
2022/02/19 00:05:18;;;;;;;;;;;;;;;3.51;100.00;97789.84;5095297;28;20359;-75
2022/02/19 00:07:46;;;;;;;;;;;;;;;3.43;100.00;97804.91;5095051;28;19934;-76
2022/02/19 00:10:13;;;;;;;;;;;;;;;3.41;100.00;97790.69;5094938;28;19947;-76
2022/02/19 00:12:41;;;;;;;;;;;;;;;3.44;100.00;97800.94;5093745;28;19925;-75
2022/02/19 00:15:08;;;;;;;;;;;;;;;3.61;100.00;97800.81;5095017;28;20264;-76
2022/02/19 00:17:35;;;;;;;;;;;;;;;3.35;100.00;97801.41;5094994;28;20310;-76
2022/02/19 00:20:04;;;;;;;;;;;;;;;3.37;100.00;97795.47;5094785;28;20379;-76
2022/02/19 00:22:32;;;;;;;;;;;;;;;3.39;100.00;97796.63;5094733;28;19939;-76
2022/02/19 00:24:59;;;;;;;;;;;;;;;3.49;100.00;97825.34;5094617;28;19928;-75
2022/02/19 00:27:28;;;;;;;;;;;;;;;3.62;100.00;97829.19;5094288;28;20409;-76
2022/02/19 00:29:55;;;;;;;;;;;;;;;3.68;100.00;97822.06;5092966;28;19946;-76
2022/02/19 00:32:22;;;;;;;;;;;;;;;3.79;100.00;97817.22;5092249;28;20295;-76
2022/02/19 00:34:51;;;;;;;;;;;;;;;3.58;100.00;97845.00;5092900;28;19924;-76
2022/02/19 00:37:20;;;;;;;;;;;;;;;3.58;100.00;97856.84;5088789;28;19924;-76
2022/02/19 00:39:47;;;;;;;;;;;;;;;3.41;100.00;97846.72;5039568;28;19931;-76
2022/02/19 00:42:14;;;;;;;;;;;;;;;3.14;100.00;97862.28;5072961;28;19924;-76
2022/02/19 00:44:41;;;;;;;;;;;;;;;2.79;100.00;97845.91;5072900;28;19924;-75
2022/02/19 00:47:08;;;;;;;;;;;;;;;2.69;100.00;97837.69;5072847;28;19925;-75
2022/02/19 00:49:37;;;;;;;;;;;;;;;2.70;100.00;97862.09;5072800;28;19925;-75
2022/02/19 00:52:05;;;;;;;;;;;;;;;2.58;100.00;97875.53;5072888;28;19931;-75
2022/02/19 00:54:32;;;;;;;;;;;;;;;2.71;100.00;97884.97;5072575;28;20027;-75
2022/02/19 00:56:59;;;;;;;;;;;;;;;2.57;100.00;97879.50;5056363;28;20302;-75
2022/02/19 00:59:27;;;;;;;;;;;;;;;2.56;100.00;97884.22;5056092;28;19924;-75
2022/02/19 01:01:54;;;;;;;;;;;;;;;2.61;100.00;97880.25;5070400;28;20275;-76
2022/02/19 01:04:41;;;;;;;;;;;;;;;2.69;100.00;97892.84;5072782;28;19931;-75
2022/02/19 01:07:10;;;;;;;;;;;;;;;2.68;100.00;97886.53;5105794;28;20011;-76
2022/02/19 01:09:40;;;;;;;;;;;;;;;2.77;100.00;97902.66;5105129;28;19924;-75
2022/02/19 01:12:07;;;;;;;;;;;;;;;2.76;100.00;97912.91;5072382;28;19932;-75
2022/02/19 01:14:37;;;;;;;;;;;;;;;2.66;100.00;97922.00;5072446;28;19983;-75
2022/02/19 01:17:05;;;;;;;;;;;;;;;2.67;100.00;97933.81;5073741;28;20318;-75
2022/02/19 01:19:32;;;;;;;;;;;;;;;2.61;100.00;97925.16;5055938;28;19930;-75
2022/02/19 01:22:00;;;;;;;;;;;;;;;2.65;100.00;97923.19;5073580;28;20395;-75
2022/02/19 01:24:27;;;;;;;;;;;;;;;2.43;100.00;97907.88;5055631;28;19925;-75
2022/02/19 01:26:59;;;;;;;;;;;;;;;2.57;100.00;97929.13;5073701;28;20344;-75
2022/02/19 01:29:26;;;;;;;;;;;;;;;2.71;100.00;97940.13;5072497;28;19924;-75
2022/02/19 01:31:54;;;;;;;;;;;;;;;2.78;100.00;97940.09;5089018;28;20009;-75
2022/02/19 01:34:22;;;;;;;;;;;;;;;2.55;100.00;97959.06;5089399;28;19925;-75
2022/02/19 01:36:50;;;;;;;;;;;;;;;2.61;100.00;97958.25;5040117;28;19931;-75
2022/02/19 01:39:17;;;;;;;;;;;;;;;2.77;100.00;97972.41;5093470;28;19991;-75
2022/02/19 01:41:47;;;;;;;;;;;;;;;2.93;100.00;97963.69;5092397;28;19932;-75
2022/02/19 01:44:16;;;;;;;;;;;;;;;3.09;100.00;97950.25;5127939;27;20019;-76
2022/02/19 01:46:45;;;;;;;;;;;;;;;3.24;100.00;97954.50;5079766;28;19924;-75
2022/02/19 01:49:12;;;;;;;;;;;;;;;3.39;100.00;97953.25;5096481;28;20021;-76
2022/02/19 01:51:42;;;;;;;;;;;;;;;3.41;100.00;97953.59;5096307;28;19969;-76
2022/02/19 01:54:11;;;;;;;;;;;;;;;3.34;100.00;97967.47;5096430;28;19971;-76
2022/02/19 01:57:04;;;;;;;;;;;;;;;3.51;100.00;97967.34;5094198;28;19935;-76
2022/02/19 01:59:39;;;;;;;;;;;;;;;3.29;100.00;97979.72;5130275;27;19928;-76
2022/02/19 02:02:30;;;;;;;;;;;;;;;3.33;100.00;97974.19;5089225;28;19923;-76
2022/02/19 02:05:18;;;;;;;;;;;;;;;3.28;100.00;97974.59;5096933;28;19924;-75
2022/02/19 02:07:46;;;;;;;;;;;;;;;2.97;100.00;97970.00;5097196;28;19924;-75
2022/02/19 02:10:13;;;;;;;;;;;;;;;3.18;100.00;97970.69;5096101;28;19924;-75
2022/02/19 02:12:40;;;;;;;;;;;;;;;3.04;100.00;97970.75;5095842;28;19928;-75
2022/02/19 02:15:24;;;;;;;;;;;;;;;3.16;100.00;97977.78;5080121;28;19931;-75
2022/02/19 02:18:12;;;;;;;;;;;;;;;3.33;100.00;97988.75;5096730;28;19931;-75
2022/02/19 02:20:39;;;;;;;;;;;;;;;3.56;100.00;97991.78;5095706;28;19930;-75
2022/02/19 02:23:08;;;;;;;;;;;;;;;3.43;100.00;97987.13;5095885;28;19928;-75
2022/02/19 02:25:36;;;;;;;;;;;;;;;3.81;100.00;98004.69;5095815;28;19931;-75
2022/02/19 02:28:09;;;;;;;;;;;;;;;3.68;100.00;97983.03;5095828;28;19928;-76
2022/02/19 02:30:41;;;;;;;;;;;;;;;3.41;100.00;97984.78;5095682;28;19986;-76
2022/02/19 02:33:16;;;;;;;;;;;;;;;3.67;100.00;97978.72;5095769;28;19930;-75
2022/02/19 02:35:55;;;;;;;;;;;;;;;3.53;100.00;97969.72;5095485;28;20023;-75
2022/02/19 02:38:31;;;;;;;;;;;;;;;3.47;100.00;97971.31;5080391;28;19925;-75
2022/02/19 02:40:59;;;;;;;;;;;;;;;3.56;100.00;97986.28;5075145;28;19925;-75
2022/02/19 02:43:27;;;;;;;;;;;;;;;3.26;100.00;97985.25;5074993;28;19940;-75
2022/02/19 02:45:59;;;;;;;;;;;;;;;3.32;100.00;97997.44;5075238;28;19955;-75
2022/02/19 02:48:29;;;;;;;;;;;;;;;3.08;100.00;97998.31;5058730;28;20390;-76
2022/02/19 02:51:05;;;;;;;;;;;;;;;2.96;100.00;98001.50;5075020;28;19955;-75
2022/02/19 02:53:40;;;;;;;;;;;;;;;2.51;100.00;97991.38;5076282;28;19924;-75
2022/02/19 02:56:08;;;;;;;;;;;;;;;2.79;100.00;97989.34;5074097;28;20367;-75
2022/02/19 02:58:37;;;;;;;;;;;;;;;3.07;100.00;97991.25;5074932;28;19939;-75
2022/02/19 03:01:07;;;;;;;;;;;;;;;3.01;100.00;97992.84;5058245;28;19925;-76
2022/02/19 03:03:35;;;;;;;;;;;;;;;3.02;100.00;97988.88;5074882;28;19925;-75
2022/02/19 03:06:03;;;;;;;;;;;;;;;3.16;100.00;97992.41;5058283;28;20382;-75
2022/02/19 03:08:30;;;;;;;;;;;;;;;3.30;100.00;97984.03;5057865;28;19938;-75
2022/02/19 03:10:58;;;;;;;;;;;;;;;3.57;100.00;97971.25;5075681;28;20382;-76
2022/02/19 03:13:25;;;;;;;;;;;;;;;3.52;100.00;97979.19;5074696;28;19928;-75
2022/02/19 03:15:56;;;;;;;;;;;;;;;3.61;100.00;97979.53;5074922;28;19931;-75
2022/02/19 03:18:26;;;;;;;;;;;;;;;3.82;100.00;97982.16;5074662;28;19924;-75
2022/02/19 03:20:59;;;;;;;;;;;;;;;3.75;100.00;97982.22;5074492;28;20019;-75
2022/02/19 03:23:27;;;;;;;;;;;;;;;3.83;100.00;97983.75;5074595;28;20429;-75
2022/02/19 03:25:54;;;;;;;;;;;;;;;3.67;100.00;97991.72;5074407;28;19935;-75
2022/02/19 03:28:22;;;;;;;;;;;;;;;3.58;100.00;97994.94;5074461;28;19928;-76
2022/02/19 03:30:55;;;;;;;;;;;;;;;3.51;100.00;97988.69;5074480;28;19970;-75
2022/02/19 03:33:46;;;;;;;;;;;;;;;3.46;100.00;97986.31;5067128;28;19935;-75
2022/02/19 03:36:16;;;;;;;;;;;;;;;3.37;100.00;97994.25;5057725;28;19925;-75
2022/02/19 03:38:44;;;;;;;;;;;;;;;3.48;100.00;97972.91;5091024;28;20056;-75
2022/02/19 03:41:17;;;;;;;;;;;;;;;3.54;100.00;97993.41;5094238;28;19974;-75
2022/02/19 03:43:44;;;;;;;;;;;;;;;3.60;100.00;98002.84;5094463;28;19970;-75
2022/02/19 03:46:12;;;;;;;;;;;;;;;3.59;100.00;97995.72;5077600;28;19977;-75
2022/02/19 03:48:49;;;;;;;;;;;;;;;3.47;100.00;97998.94;5094064;28;19932;-75
2022/02/19 03:51:19;;;;;;;;;;;;;;;3.62;100.00;97994.91;5094143;28;19924;-75
2022/02/19 03:53:47;;;;;;;;;;;;;;;3.57;100.00;98004.41;5094154;28;19924;-75
2022/02/19 03:56:19;;;;;;;;;;;;;;;3.40;100.00;97994.25;5094251;28;19963;-75
2022/02/19 03:58:47;;;;;;;;;;;;;;;3.58;100.00;97999.69;5094116;28;19924;-76
2022/02/19 04:01:14;;;;;;;;;;;;;;;3.27;100.00;97978.53;5093874;28;19928;-75
2022/02/19 04:03:43;;;;;;;;;;;;;;;3.30;100.00;97983.25;5093925;28;19930;-75
2022/02/19 04:06:12;;;;;;;;;;;;;;;3.43;100.00;97987.13;5094054;28;19931;-76
2022/02/19 04:08:39;;;;;;;;;;;;;;;3.20;100.00;97979.34;5093878;28;19924;-75
2022/02/19 04:11:07;;;;;;;;;;;;;;;3.21;100.00;97975.41;5093858;28;19931;-75
2022/02/19 04:13:35;;;;;;;;;;;;;;;3.29;100.00;97967.88;5093940;28;20073;-75
2022/02/19 04:16:10;;;;;;;;;;;;;;;3.31;100.00;97971.03;5094179;28;20276;-75
2022/02/19 04:18:41;;;;;;;;;;;;;;;3.20;100.00;97967.53;5093915;28;19931;-75
2022/02/19 04:21:11;;;;;;;;;;;;;;;3.15;100.00;97962.44;5077439;28;19931;-75
2022/02/19 04:23:40;;;;;;;;;;;;;;;3.27;100.00;97957.22;5076800;28;20017;-75
2022/02/19 04:26:09;;;;;;;;;;;;;;;3.35;100.00;97963.50;5093762;28;20058;-75
2022/02/19 04:28:52;;;;;;;;;;;;;;;3.49;100.00;97974.47;5093783;28;19924;-75
2022/02/19 04:31:26;;;;;;;;;;;;;;;3.36;100.00;97979.66;5093598;28;19947;-76
2022/02/19 04:34:03;;;;;;;;;;;;;;;3.44;100.00;97966.59;5093699;28;20010;-75
2022/02/19 04:36:32;;;;;;;;;;;;;;;3.54;100.00;97951.97;5076658;28;20383;-75
2022/02/19 04:38:59;;;;;;;;;;;;;;;3.25;100.00;97953.31;5074262;28;19929;-75
2022/02/19 04:41:28;;;;;;;;;;;;;;;3.38;100.00;97970.97;5073226;28;19974;-75
2022/02/19 04:43:55;;;;;;;;;;;;;;;3.26;100.00;97965.91;5074401;28;19924;-75
2022/02/19 04:46:24;;;;;;;;;;;;;;;3.41;100.00;97979.25;5072974;28;19931;-75
2022/02/19 04:48:54;;;;;;;;;;;;;;;3.30;100.00;97977.75;5057134;28;19932;-75
2022/02/19 04:51:25;;;;;;;;;;;;;;;3.44;100.00;97994.22;5074241;28;19932;-75
2022/02/19 04:54:00;;;;;;;;;;;;;;;3.39;100.00;97986.38;5073023;28;19931;-75
2022/02/19 04:56:35;;;;;;;;;;;;;;;3.35;100.00;97985.59;5073122;28;19932;-75
2022/02/19 04:59:04;;;;;;;;;;;;;;;3.19;100.00;97979.75;5072990;28;19964;-75
2022/02/19 05:01:37;;;;;;;;;;;;;;;3.23;100.00;97981.31;5072682;28;19962;-75
2022/02/19 05:04:09;;;;;;;;;;;;;;;3.14;100.00;97986.47;5073159;28;20263;-75
2022/02/19 05:06:55;;;;;;;;;;;;;;;3.19;100.00;97999.06;5072805;28;19932;-75
2022/02/19 05:09:23;;;;;;;;;;;;;;;3.21;100.00;97991.19;5072352;28;19924;-75
2022/02/19 05:12:08;;;;;;;;;;;;;;;3.25;100.00;97997.47;5055776;28;19931;-75
2022/02/19 05:14:39;;;;;;;;;;;;;;;3.23;100.00;98002.59;5055664;28;20062;-76
2022/02/19 05:17:19;;;;;;;;;;;;;;;3.26;100.00;97983.28;5055426;28;19928;-75
2022/02/19 05:19:51;;;;;;;;;;;;;;;3.29;100.00;98015.59;5071594;28;19924;-76
2022/02/19 05:22:18;;;;;;;;;;;;;;;3.47;100.00;98008.03;5071890;28;19925;-76
2022/02/19 05:24:50;;;;;;;;;;;;;;;3.51;100.00;98019.81;5055234;28;19928;-75
2022/02/19 05:27:20;;;;;;;;;;;;;;;3.56;100.00;98018.63;5072100;28;19924;-75
2022/02/19 05:29:50;;;;;;;;;;;;;;;3.36;100.00;98023.06;5055404;28;19932;-75
2022/02/19 05:32:18;;;;;;;;;;;;;;;3.53;100.00;98025.75;5053698;28;20097;-75
2022/02/19 05:35:07;;;;;;;;;;;;;;;3.58;100.00;98017.06;5071006;28;19971;-75
2022/02/19 05:37:37;;;;;;;;;;;;;;;3.47;100.00;98015.50;5085315;28;19931;-75
2022/02/19 05:40:04;;;;;;;;;;;;;;;3.38;100.00;98018.72;5068640;28;19974;-75
2022/02/19 05:42:32;;;;;;;;;;;;;;;3.22;100.00;98025.88;5092484;28;19924;-75
2022/02/19 05:45:17;;;;;;;;;;;;;;;3.35;100.00;98014.00;5075446;28;20356;-75
2022/02/19 05:47:48;;;;;;;;;;;;;;;3.40;100.00;98026.59;5092289;28;19928;-75
2022/02/19 05:50:33;;;;;;;;;;;;;;;3.38;100.00;98031.72;5093470;28;19959;-75
2022/02/19 05:53:30;;;;;;;;;;;;;;;3.39;100.00;98041.59;5044108;28;19932;-75
2022/02/19 05:55:57;;;;;;;;;;;;;;;3.57;100.00;98036.78;5035400;28;19978;-76
2022/02/19 05:58:25;;;;;;;;;;;;;;;3.37;100.00;98035.69;5068468;28;20315;-75
2022/02/19 06:01:03;;;;;;;;;;;;;;;3.29;100.00;98043.22;5051912;28;20062;-75
2022/02/19 06:03:31;;;;;;;;;;;;;;;3.37;100.00;98043.97;5051946;28;19932;-74
2022/02/19 06:05:58;;;;;;;;;;;;;;;3.50;100.00;98037.59;5051901;28;19924;-75
2022/02/19 06:08:27;;;;;;;;;;;;;;;3.38;100.00;98051.84;5051739;28;20015;-75
2022/02/19 06:10:54;;;;;;;;;;;;;;;3.18;100.00;98041.69;5068444;28;19931;-75
2022/02/19 06:13:24;;;;;;;;;;;;;;;3.41;100.00;98033.69;5051818;28;19925;-75
2022/02/19 06:15:52;;;;;;;;;;;;;;;3.43;100.00;98036.84;5068650;28;20336;-75
2022/02/19 06:18:25;;;;;;;;;;;;;;;3.38;100.00;98040.00;5051881;28;19932;-75
2022/02/19 06:20:52;;;;;;;;;;;;;;;3.34;100.00;98044.75;5068334;28;19932;-75
2022/02/19 06:23:37;;;;;;;;;;;;;;;3.48;100.00;98028.16;5051743;28;19975;-75
2022/02/19 06:26:05;;;;;;;;;;;;;;;3.24;100.00;98035.31;5068479;28;19936;-75
2022/02/19 06:28:39;;;;;;;;;;;;;;;3.22;100.00;98036.91;5092763;28;19924;-75
2022/02/19 06:31:06;;;;;;;;;;;;;;;3.35;100.00;98032.53;5076261;28;19925;-75
2022/02/19 06:33:33;;;;;;;;;;;;;;;3.30;100.00;98027.44;5095638;28;20012;-75
2022/02/19 06:36:04;;;;;;;;;;;;;;;3.21;100.00;98033.38;5095800;28;19930;-75
2022/02/19 06:38:32;;;;;;;;;;;;;;;3.10;100.00;98034.59;5095563;28;19924;-75
2022/02/19 06:41:00;;;;;;;;;;;;;;;3.20;100.00;98044.81;5095654;28;19924;-75
2022/02/19 06:43:44;;;;;;;;;;;;;;;3.28;100.00;98033.34;5095291;28;19997;-75
2022/02/19 06:46:12;;;;;;;;;;;;;;;3.34;100.00;98044.75;5096741;28;20033;-75
2022/02/19 06:48:39;;;;;;;;;;;;;;;3.16;100.00;98033.78;5095296;28;20287;-75
2022/02/19 06:51:07;;;;;;;;;;;;;;;3.29;100.00;98031.38;5095349;28;20351;-75
2022/02/19 06:53:37;;;;;;;;;;;;;;;3.20;100.00;98028.25;5095380;28;19943;-75
2022/02/19 06:56:05;;;;;;;;;;;;;;;3.32;100.00;98020.31;5095091;28;19928;-75
2022/02/19 06:58:32;;;;;;;;;;;;;;;3.24;100.00;98023.50;5078573;28;19931;-75
2022/02/19 07:01:00;;;;;;;;;;;;;;;3.26;100.00;98026.66;5095233;28;19924;-75
2022/02/19 07:03:28;;;;;;;;;;;;;;;3.15;100.00;98023.91;5129010;27;19924;-75
2022/02/19 07:06:10;;;;;;;;;;;;;;;3.57;100.00;98032.03;5095135;28;20359;-75
2022/02/19 07:08:39;;;;;;;;;;;;;;;3.44;100.00;98024.59;5078078;28;20021;-75
2022/02/19 07:11:07;;;;;;;;;;;;;;;3.27;100.00;98033.75;5094574;28;20009;-75
2022/02/19 07:13:35;;;;;;;;;;;;;;;3.33;100.00;98038.44;5095159;28;19928;-75
2022/02/19 07:16:03;;;;;;;;;;;;;;;3.32;100.00;98042.41;5094893;28;19928;-75
2022/02/19 07:18:51;;;;;;;;;;;;;;;3.31;100.00;98040.03;5095647;28;19924;-75
2022/02/19 07:21:19;;;;;;;;;;;;;;;3.30;100.00;98038.47;5094760;28;19924;-75
2022/02/19 07:23:47;;;;;;;;;;;;;;;3.39;100.00;98041.59;5094604;28;19924;-75
2022/02/19 07:26:18;;;;;;;;;;;;;;;3.52;100.00;98035.22;5094588;28;19924;-75
2022/02/19 07:28:49;;;;;;;;;;;;;;;3.32;100.00;98034.13;5094503;28;19931;-75
2022/02/19 07:31:17;;;;;;;;;;;;;;;3.48;100.00;98030.91;5063976;28;19924;-75
2022/02/19 07:33:44;;;;;;;;;;;;;;;3.42;100.00;98040.81;5074343;28;20304;-73
2022/02/19 07:36:18;;;;;;;;;;;;;;;3.41;100.00;98023.44;5074674;28;19932;-75
2022/02/19 07:38:45;;;;;;;;;;;;;;;3.58;100.00;98038.34;5087214;28;19932;-73
2022/02/19 07:41:12;;;;;;;;;;;;;;;3.56;100.00;98036.00;5095933;28;20356;-73
2022/02/19 07:44:09;;;;;;;;;;;;;;;3.88;100.00;98024.75;5032801;28;20258;-74
2022/02/19 07:46:36;;;;;;;;;;;;;;;3.67;100.00;98027.66;5042956;28;19925;-73
2022/02/19 07:58:25;;;;;;;;;;;;;;;4.00;100.00;98042.88;5036980;28;19932;-74
2022/02/19 08:00:56;;;;;;;;;;;;;;;4.00;100.00;98021.53;5015803;28;19948;-74
2022/02/19 08:03:25;;;;;;;;;;;;;;;4.05;100.00;98028.59;5032475;28;19926;-74
2022/02/19 08:05:59;;;;;;;;;;;;;;;4.03;100.00;98031.78;5016160;28;19925;-73
2022/02/19 08:08:27;;;;;;;;;;;;;;;4.10;100.00;98048.31;5029987;28;19931;-74
2022/02/19 08:11:00;;;;;;;;;;;;;;;3.98;100.00;98045.25;5035510;28;19925;-74
2022/02/19 08:13:27;;;;;;;;;;;;;;;4.07;100.00;98051.91;5052286;28;19925;-74
2022/02/19 08:15:55;;;;;;;;;;;;;;;4.08;100.00;98041.59;5049882;28;20277;-74
2022/02/19 08:18:23;;;;;;;;;;;;;;;4.18;100.00;98049.81;5031011;28;19925;-74
2022/02/19 08:20:50;;;;;;;;;;;;;;;4.25;100.00;98035.97;5056366;28;19925;-74
2022/02/19 08:23:18;;;;;;;;;;;;;;;4.33;100.00;98039.47;5064881;28;19931;-74
2022/02/19 08:25:46;;;;;;;;;;;;;;;4.31;100.00;98042.66;5073909;28;20320;-74
2022/02/19 08:28:13;;;;;;;;;;;;;;;4.28;100.00;98040.69;5094622;28;20394;-74
2022/02/19 08:30:41;;;;;;;;;;;;;;;4.28;100.00;98032.41;5093111;28;19924;-75
2022/02/19 08:33:09;;;;;;;;;;;;;;;4.23;100.00;98029.25;5094756;28;19924;-75
2022/02/19 08:35:36;;;;;;;;;;;;;;;4.32;100.00;98033.16;5075950;28;19924;-75
2022/02/19 08:38:04;;;;;;;;;;;;;;;4.42;100.00;98026.75;5052889;28;20288;-75
2022/02/19 08:40:31;;;;;;;;;;;;;;;4.56;100.00;98028.63;5084749;28;19924;-75
2022/02/19 08:42:59;;;;;;;;;;;;;;;4.68;100.00;98019.81;5084525;28;20367;-75
2022/02/19 08:45:26;;;;;;;;;;;;;;;4.63;100.00;98021.03;5071162;28;19956;-75
2022/02/19 08:47:54;;;;;;;;;;;;;;;4.64;100.00;98011.53;5075104;28;20363;-75
2022/02/19 08:50:21;;;;;;;;;;;;;;;4.59;100.00;98022.28;5072590;28;19924;-75
2022/02/19 08:52:49;;;;;;;;;;;;;;;4.79;100.00;98017.72;5072055;28;19925;-75
2022/02/19 08:55:16;;;;;;;;;;;;;;;4.78;100.00;98022.47;5053514;28;20275;-75
2022/02/19 08:57:44;;;;;;;;;;;;;;;4.73;100.00;98027.66;5077714;28;20374;-75
2022/02/19 09:00:13;;;;;;;;;;;;;;;4.94;100.00;98019.94;5079494;28;20390;-75
2022/02/19 09:02:40;;;;;;;;;;;;;;;4.97;100.00;98013.56;5071902;28;19924;-75
2022/02/19 09:05:08;;;;;;;;;;;;;;;5.13;100.00;98011.03;5074850;28;19924;-75
2022/02/19 09:07:39;;;;;;;;;;;;;;;5.16;100.00;98001.91;5074392;28;20464;-75
2022/02/19 09:10:07;;;;;;;;;;;;;;;5.07;100.00;98012.66;5079149;28;19928;-75
2022/02/19 09:12:37;;;;;;;;;;;;;;;4.87;100.00;98008.16;5093195;28;20131;-75
2022/02/19 09:15:04;;;;;;;;;;;;;;;5.01;100.00;98008.78;5094048;28;19924;-75
2022/02/19 09:17:31;;;;;;;;;;;;;;;4.78;100.00;98005.88;5069761;28;19924;-75
2022/02/19 09:19:58;;;;;;;;;;;;;;;4.61;100.00;98004.06;5077458;28;19931;-74
2022/02/19 09:22:25;;;;;;;;;;;;;;;4.72;100.00;98023.31;5073490;28;20390;-75
2022/02/19 09:24:52;;;;;;;;;;;;;;;4.48;100.00;98008.53;5071817;28;19924;-75
2022/02/19 09:27:19;;;;;;;;;;;;;;;4.32;100.00;98013.78;5058584;28;19924;-75
2022/02/19 09:29:46;;;;;;;;;;;;;;;4.41;100.00;98013.34;5072611;28;20014;-75
2022/02/19 09:32:14;;;;;;;;;;;;;;;4.47;100.00;98012.47;5077089;28;19946;-75
2022/02/19 09:34:41;;;;;;;;;;;;;;;4.61;100.00;98014.31;5092672;28;20291;-75
2022/02/19 09:37:07;;;;;;;;;;;;;;;4.62;100.00;98002.84;5092547;28;19928;-76
2022/02/19 09:39:35;;;;;;;;;;;;;;;4.48;100.00;98011.31;5093898;28;19935;-75
2022/02/19 09:42:03;;;;;;;;;;;;;;;4.51;100.00;98010.47;5092801;28;19924;-75
2022/02/19 09:44:30;;;;;;;;;;;;;;;4.60;100.00;97994.19;5091531;28;20307;-75
2022/02/19 09:46:58;;;;;;;;;;;;;;;4.59;100.00;97992.59;5091526;28;19931;-75
2022/02/19 09:49:25;;;;;;;;;;;;;;;4.69;100.00;98000.03;5092882;28;19925;-75
2022/02/19 09:51:55;;;;;;;;;;;;;;;4.76;100.00;97986.13;5092772;28;19924;-75
2022/02/19 09:54:23;;;;;;;;;;;;;;;4.84;100.00;97981.28;5091728;28;19924;-75
2022/02/19 09:56:50;;;;;;;;;;;;;;;4.90;100.00;97988.75;5074488;28;19925;-75
2022/02/19 09:59:17;;;;;;;;;;;;;;;5.11;100.00;97971.09;5092805;28;20023;-75
2022/02/19 10:02:03;;;;;;;;;;;;;;;5.37;100.00;97962.88;5091544;28;19924;-75
2022/02/19 10:04:31;;;;;;;;;;;;;;;5.30;100.00;97954.63;5074918;28;20357;-75
2022/02/19 10:07:01;;;;;;;;;;;;;;;5.13;100.00;97955.66;5095614;28;19931;-75
2022/02/19 10:09:29;;;;;;;;;;;;;;;5.18;100.00;97935.81;5096664;28;20280;-76
2022/02/19 10:12:06;;;;;;;;;;;;;;;5.19;100.00;97931.84;5096298;28;20326;-76
2022/02/19 10:14:35;;;;;;;;;;;;;;;4.84;100.00;97934.25;5095704;28;20022;-75
2022/02/19 10:17:02;;;;;;;;;;;;;;;5.17;100.00;97927.91;5095363;28;19984;-75
2022/02/19 10:19:30;;;;;;;;;;;;;;;5.05;100.00;97915.41;5096360;28;19968;-75
2022/02/19 10:22:09;;;;;;;;;;;;;;;4.74;100.00;97905.50;5096478;28;19924;-75
2022/02/19 10:24:37;;;;;;;;;;;;;;;4.92;100.00;97913.59;5096703;28;19930;-75
2022/02/19 10:27:04;;;;;;;;;;;;;;;4.86;100.00;97885.56;5094049;28;19931;-75
2022/02/19 10:29:45;;;;;;;;;;;;;;;5.11;100.00;97885.28;5072827;28;19925;-75
2022/02/19 10:32:12;;;;;;;;;;;;;;;5.18;100.00;97883.19;5076807;28;19924;-75
2022/02/19 10:34:58;;;;;;;;;;;;;;;5.13;100.00;97875.38;5076596;28;19925;-75
2022/02/19 10:37:26;;;;;;;;;;;;;;;4.77;100.00;97870.69;5095146;28;20252;-75
2022/02/19 10:39:53;;;;;;;;;;;;;;;4.66;100.00;97859.75;5097026;28;19924;-75
2022/02/19 10:42:30;;;;;;;;;;;;;;;4.65;100.00;97857.41;5095631;28;19971;-75
2022/02/19 10:44:57;;;;;;;;;;;;;;;4.61;100.00;97851.91;5096768;28;19928;-75
2022/02/19 10:47:25;;;;;;;;;;;;;;;4.90;100.00;97839.28;5096753;28;19946;-75
2022/02/19 10:50:10;;;;;;;;;;;;;;;4.73;100.00;97823.69;5078803;28;19928;-75
2022/02/19 10:52:42;;;;;;;;;;;;;;;4.56;100.00;97816.38;5085718;28;19924;-75
2022/02/19 10:55:09;;;;;;;;;;;;;;;4.14;100.00;97794.75;5079423;28;19925;-74
2022/02/19 10:57:39;;;;;;;;;;;;;;;3.79;100.00;97789.56;5069498;28;19936;-75
2022/02/19 11:00:12;;;;;;;;;;;;;;;4.15;100.00;97771.44;5075840;28;20300;-75
2022/02/19 11:02:40;;;;;;;;;;;;;;;3.87;100.00;97752.41;5074840;28;20299;-75
2022/02/19 11:05:09;;;;;;;;;;;;;;;4.15;100.00;97762.38;5075511;28;20077;-75
2022/02/19 11:07:37;;;;;;;;;;;;;;;4.73;100.00;97759.25;5079140;28;20023;-75
2022/02/19 11:10:05;;;;;;;;;;;;;;;4.54;100.00;97744.13;5078852;28;20367;-75
2022/02/19 11:12:32;;;;;;;;;;;;;;;3.75;100.00;97736.34;5078300;28;19948;-75
2022/02/19 11:15:00;;;;;;;;;;;;;;;4.24;100.00;97730.25;5082912;28;20415;-75
2022/02/19 11:17:31;;;;;;;;;;;;;;;4.09;100.00;97714.28;5087027;28;19928;-79
2022/02/19 11:20:03;;;;;;;;;;;;;;;4.34;100.00;97710.00;5056588;28;19928;-76
2022/02/19 11:22:33;;;;;;;;;;;;;;;4.30;100.00;97687.13;5074837;28;19939;-75
2022/02/19 11:25:01;;;;;;;;;;;;;;;4.03;100.00;97664.16;5069442;28;20019;-75
2022/02/19 11:27:29;;;;;;;;;;;;;;;3.25;100.00;97667.03;5075892;28;19930;-73
2022/02/19 11:30:04;;;;;;;;;;;;;;;3.36;100.00;97661.41;5075843;28;19951;-78
2022/02/19 11:32:32;;;;;;;;;;;;;;;3.95;100.00;97654.44;5071887;28;19924;-76
2022/02/19 11:34:59;;;;;;;;;;;;;;;3.79;100.00;97642.38;5073203;28;19925;-74
2022/02/19 11:37:26;;;;;;;;;;;;;;;4.06;100.00;97652.28;5074774;28;19929;-77
2022/02/19 11:40:04;;;;;;;;;;;;;;;4.18;100.00;97624.09;5074787;28;19924;-77
2022/02/19 11:42:49;;;;;;;;;;;;;;;4.04;100.00;97602.19;5074241;28;19924;-76
2022/02/19 11:45:29;;;;;;;;;;;;;;;4.22;100.00;97599.97;5074879;28;19935;-76
2022/02/19 11:48:06;;;;;;;;;;;;;;;4.26;100.00;97600.69;5074309;28;19929;-76
2022/02/19 11:50:40;;;;;;;;;;;;;;;4.16;100.00;97604.41;5107274;28;19924;-76
2022/02/19 11:53:12;;;;;;;;;;;;;;;3.86;100.00;97607.16;5074345;28;19925;-77
2022/02/19 11:55:45;;;;;;;;;;;;;;;3.90;100.00;97602.38;5074406;28;19931;-76
2022/02/19 11:58:18;;;;;;;;;;;;;;;4.15;100.00;97602.03;5074364;28;20009;-76
2022/02/19 12:00:53;;;;;;;;;;;;;;;4.36;100.00;97579.63;5074204;28;19924;-76
2022/02/19 12:03:21;;;;;;;;;;;;;;;4.65;100.00;97581.50;5090185;28;19934;-76
2022/02/19 12:06:07;;;;;;;;;;;;;;;4.64;100.00;97590.22;5073080;28;19924;-76
2022/02/19 12:08:46;;;;;;;;;;;;;;;4.74;100.00;97595.59;5072750;28;19931;-77
2022/02/19 12:11:17;;;;;;;;;;;;;;;4.09;100.00;97582.34;5073973;28;20386;-76
2022/02/19 12:13:45;;;;;;;;;;;;;;;3.68;100.00;97563.19;5074061;28;19924;-76
2022/02/19 12:16:27;;;;;;;;;;;;;;;3.90;100.00;97571.19;5106491;28;19932;-76
2022/02/19 12:18:57;;;;;;;;;;;;;;;3.79;100.00;97576.84;5073993;28;19963;-76
2022/02/19 12:21:44;;;;;;;;;;;;;;;3.90;100.00;97568.41;5073693;28;20437;-76
2022/02/19 12:24:19;;;;;;;;;;;;;;;4.06;100.00;97561.09;5073790;28;20280;-76
2022/02/19 12:26:55;;;;;;;;;;;;;;;3.90;100.00;97547.09;5073806;28;19928;-76
2022/02/19 12:29:22;;;;;;;;;;;;;;;3.58;100.00;97508.06;5072853;28;20368;-76
2022/02/19 12:32:03;;;;;;;;;;;;;;;3.80;100.00;97514.91;5073519;28;19971;-76
2022/02/19 12:34:31;;;;;;;;;;;;;;;4.01;100.00;97506.28;5072648;28;19932;-76
2022/02/19 12:36:59;;;;;;;;;;;;;;;4.05;100.00;97495.97;5073342;28;19932;-76
2022/02/19 12:39:26;;;;;;;;;;;;;;;4.03;100.00;97484.53;5073577;28;19924;-76
2022/02/19 12:41:54;;;;;;;;;;;;;;;3.95;100.00;97488.63;5073495;28;19932;-77
2022/02/19 12:44:22;;;;;;;;;;;;;;;4.26;100.00;97484.56;5073262;28;19925;-76
2022/02/19 12:46:52;;;;;;;;;;;;;;;4.15;100.00;97461.06;5073287;28;19928;-76
2022/02/19 12:49:20;;;;;;;;;;;;;;;3.73;100.00;97432.09;5072469;28;19951;-76
2022/02/19 12:51:57;;;;;;;;;;;;;;;3.94;100.00;97464.94;5072147;28;20033;-76
2022/02/19 12:54:30;;;;;;;;;;;;;;;4.00;100.00;97460.50;5073272;28;19975;-76
2022/02/19 12:56:57;;;;;;;;;;;;;;;4.34;100.00;97461.13;5072148;28;19928;-76
2022/02/19 12:59:28;;;;;;;;;;;;;;;3.97;100.00;97452.28;5073082;28;19924;-76
2022/02/19 13:01:56;;;;;;;;;;;;;;;4.18;100.00;97458.22;5073235;28;20380;-76
2022/02/19 13:04:30;;;;;;;;;;;;;;;4.17;100.00;97456.69;5073218;28;19964;-76
2022/02/19 13:06:58;;;;;;;;;;;;;;;4.31;100.00;97445.41;5071852;28;19928;-76
2022/02/19 13:09:26;;;;;;;;;;;;;;;4.23;100.00;97443.94;5073099;28;20398;-77
2022/02/19 13:11:54;;;;;;;;;;;;;;;4.64;100.00;97452.72;5073176;28;19982;-77
2022/02/19 13:14:26;;;;;;;;;;;;;;;4.38;100.00;97439.72;5072887;28;19995;-76